createdAt,value
2019-03-18T00:00:50.728Z,1005.17
2019-03-18T00:01:50.716Z,1005.16
2019-03-18T00:02:50.705Z,1005.20
2019-03-18T00:03:50.738Z,1005.22
2019-03-18T00:04:50.685Z,1005.20
2019-03-18T00:05:50.678Z,1005.18
2019-03-18T00:06:50.663Z,1005.25
2019-03-18T00:07:50.691Z,1005.26
2019-03-18T00:08:50.681Z,1005.27
2019-03-18T00:09:50.631Z,1005.32
2019-03-18T00:10:50.621Z,1005.26
2019-03-18T00:11:50.613Z,1005.31
2019-03-18T00:12:52.137Z,1005.30
2019-03-18T00:13:50.590Z,1005.31
2019-03-18T00:15:00.702Z,1005.33
2019-03-18T00:15:51.570Z,1005.32
2019-03-18T00:16:50.556Z,1005.27
2019-03-18T00:17:50.542Z,1005.30
2019-03-18T00:18:50.537Z,1005.34
2019-03-18T00:19:50.560Z,1005.32
2019-03-18T00:20:50.512Z,1005.32
2019-03-18T00:21:50.500Z,1005.32
2019-03-18T00:22:50.489Z,1005.35
2019-03-18T00:23:50.522Z,1005.35
2019-03-18T00:24:50.470Z,1005.33
2019-03-18T00:25:50.456Z,1005.31
2019-03-18T00:26:50.445Z,1005.33
2019-03-18T00:27:50.437Z,1005.31
2019-03-18T00:28:50.424Z,1005.28
2019-03-18T00:29:50.459Z,1005.30
2019-03-18T00:30:50.410Z,1005.26
2019-03-18T00:31:50.393Z,1005.38
2019-03-18T00:32:50.381Z,1005.34
2019-03-18T00:33:50.416Z,1005.39
2019-03-18T00:34:50.364Z,1005.36
2019-03-18T00:35:50.351Z,1005.35
2019-03-18T00:36:50.340Z,1005.42
2019-03-18T00:37:50.371Z,1005.42
2019-03-18T00:38:50.358Z,1005.41
2019-03-18T00:39:50.358Z,1005.39
2019-03-18T00:40:50.294Z,1005.42
2019-03-18T00:41:50.284Z,1005.37
2019-03-18T00:42:50.276Z,1005.40
2019-03-18T00:43:50.302Z,1005.34
2019-03-18T00:44:50.292Z,1005.35
2019-03-18T00:45:50.304Z,1005.37
2019-03-18T00:46:50.230Z,1005.34
2019-03-18T00:47:50.222Z,1005.38
2019-03-18T00:48:50.209Z,1005.41
2019-03-18T00:49:50.243Z,1005.42
2019-03-18T00:50:50.189Z,1005.49
2019-03-18T00:51:50.178Z,1005.48
2019-03-18T00:52:50.167Z,1005.44
2019-03-18T00:53:50.160Z,1005.44
2019-03-18T00:54:50.149Z,1005.44
2019-03-18T00:55:51.792Z,1005.47
2019-03-18T00:56:50.125Z,1005.44
2019-03-18T00:57:50.112Z,1005.52
2019-03-18T00:58:50.163Z,1005.53
2019-03-18T00:59:50.094Z,1005.58
2019-03-18T01:00:50.081Z,1005.60
2019-03-18T01:01:50.069Z,1005.59
2019-03-18T01:02:50.160Z,1005.61
2019-03-18T01:03:50.051Z,1005.65
2019-03-18T01:04:50.083Z,1005.64
2019-03-18T01:05:50.070Z,1005.63
2019-03-18T01:06:50.018Z,1005.73
2019-03-18T01:07:50.009Z,1005.70
2019-03-18T01:08:49.998Z,1005.70
2019-03-18T01:09:50.033Z,1005.74
2019-03-18T01:10:50.016Z,1005.74
2019-03-18T01:11:49.965Z,1005.75
2019-03-18T01:12:49.964Z,1005.77
2019-03-18T01:13:49.990Z,1005.77
2019-03-18T01:14:49.931Z,1005.74
2019-03-18T01:15:49.919Z,1005.78
2019-03-18T01:16:49.923Z,1005.78
2019-03-18T01:17:49.899Z,1005.80
2019-03-18T01:18:49.889Z,1005.76
2019-03-18T01:19:49.919Z,1005.76
2019-03-18T01:20:49.869Z,1005.72
2019-03-18T01:21:49.905Z,1005.70
2019-03-18T01:22:49.862Z,1005.72
2019-03-18T01:23:49.835Z,1005.72
2019-03-18T01:24:49.832Z,1005.73
2019-03-18T01:25:49.852Z,1005.74
2019-03-18T01:26:49.804Z,1005.70
2019-03-18T01:27:49.801Z,1005.73
2019-03-18T01:28:49.867Z,1005.79
2019-03-18T01:29:49.773Z,1005.80
2019-03-18T01:30:49.763Z,1005.80
2019-03-18T01:31:49.786Z,1005.79
2019-03-18T01:32:49.736Z,1005.80
2019-03-18T01:33:49.725Z,1005.81
2019-03-18T01:34:49.755Z,1005.82
2019-03-18T01:35:49.709Z,1005.79
2019-03-18T01:36:49.734Z,1005.84
2019-03-18T01:37:49.689Z,1005.82
2019-03-18T01:38:49.672Z,1005.87
2019-03-18T01:39:49.665Z,1005.82
2019-03-18T01:40:49.649Z,1005.84
2019-03-18T01:41:49.683Z,1005.83
2019-03-18T01:42:49.653Z,1005.82
2019-03-18T01:43:49.620Z,1005.81
2019-03-18T01:44:49.606Z,1005.84
2019-03-18T01:45:49.647Z,1005.85
2019-03-18T01:46:49.586Z,1005.87
2019-03-18T01:47:49.577Z,1005.90
2019-03-18T01:48:49.571Z,1005.89
2019-03-18T01:49:49.554Z,1005.88
2019-03-18T01:50:49.547Z,1005.86
2019-03-18T01:51:49.571Z,1005.86
2019-03-18T01:52:49.522Z,1005.88
2019-03-18T01:53:49.512Z,1005.87
2019-03-18T01:54:49.538Z,1005.89
2019-03-18T01:55:49.490Z,1005.87
2019-03-18T01:56:49.539Z,1005.87
2019-03-18T01:57:49.476Z,1005.85
2019-03-18T01:58:49.456Z,1005.84
2019-03-18T01:59:49.489Z,1005.90
2019-03-18T02:00:49.437Z,1005.87
2019-03-18T02:01:49.426Z,1005.84
2019-03-18T02:02:51.814Z,1005.85
2019-03-18T02:03:49.403Z,1005.79
2019-03-18T02:04:49.437Z,1005.81
2019-03-18T02:05:49.416Z,1005.82
2019-03-18T02:06:49.373Z,1005.85
2019-03-18T02:07:49.358Z,1005.77
2019-03-18T02:08:49.350Z,1005.79
2019-03-18T02:09:49.342Z,1005.78
2019-03-18T02:10:49.367Z,1005.84
2019-03-18T02:11:49.318Z,1005.85
2019-03-18T02:12:49.306Z,1005.85
2019-03-18T02:13:49.296Z,1005.89
2019-03-18T02:14:49.328Z,1005.86
2019-03-18T02:15:53.517Z,1005.87
2019-03-18T02:16:49.298Z,1005.90
2019-03-18T02:17:49.293Z,1005.85
2019-03-18T02:18:49.240Z,1005.90
2019-03-18T02:19:49.231Z,1005.86
2019-03-18T02:20:49.220Z,1005.86
2019-03-18T02:21:49.248Z,1005.88
2019-03-18T02:22:49.238Z,1005.91
2019-03-18T02:23:49.190Z,1005.94
2019-03-18T02:24:49.190Z,1005.90
2019-03-18T02:25:49.204Z,1005.91
2019-03-18T02:26:49.176Z,1005.89
2019-03-18T02:27:49.144Z,1005.90
2019-03-18T02:28:49.134Z,1005.88
2019-03-18T02:29:49.165Z,1005.90
2019-03-18T02:30:49.113Z,1005.86
2019-03-18T02:31:49.115Z,1005.83
2019-03-18T02:32:49.134Z,1005.91
2019-03-18T02:33:49.120Z,1005.87
2019-03-18T02:34:49.071Z,1005.89
2019-03-18T02:35:49.062Z,1005.88
2019-03-18T02:36:49.090Z,1005.82
2019-03-18T02:37:49.044Z,1005.84
2019-03-18T02:38:49.031Z,1005.86
2019-03-18T02:39:49.017Z,1005.86
2019-03-18T02:40:49.003Z,1005.82
2019-03-18T02:41:49.067Z,1005.81
2019-03-18T02:42:49.029Z,1005.77
2019-03-18T02:43:48.973Z,1005.76
2019-03-18T02:44:48.960Z,1005.75
2019-03-18T02:45:48.997Z,1005.75
2019-03-18T02:46:48.939Z,1005.78
2019-03-18T02:47:48.933Z,1005.82
2019-03-18T02:48:48.919Z,1005.86
2019-03-18T02:49:48.909Z,1005.81
2019-03-18T02:50:48.942Z,1005.86
2019-03-18T02:51:52.665Z,1005.88
2019-03-18T02:52:48.876Z,1005.86
2019-03-18T02:53:48.870Z,1005.86
2019-03-18T02:54:48.855Z,1005.84
2019-03-18T02:55:48.886Z,1005.76
2019-03-18T02:56:48.831Z,1005.84
2019-03-18T02:57:48.881Z,1005.82
2019-03-18T02:58:48.817Z,1005.87
2019-03-18T02:59:48.799Z,1005.85
2019-03-18T03:00:48.793Z,1005.89
2019-03-18T03:01:48.775Z,1005.90
2019-03-18T03:02:48.810Z,1005.91
2019-03-18T03:03:48.763Z,1005.95
2019-03-18T03:04:48.742Z,1005.93
2019-03-18T03:05:48.737Z,1005.98
2019-03-18T03:06:48.752Z,1005.97
2019-03-18T03:07:48.761Z,1005.91
2019-03-18T03:08:48.699Z,1005.91
2019-03-18T03:09:48.688Z,1005.90
2019-03-18T03:10:48.682Z,1005.89
2019-03-18T03:11:48.675Z,1005.89
2019-03-18T03:12:48.729Z,1005.94
2019-03-18T03:13:48.646Z,1005.93
2019-03-18T03:14:48.692Z,1005.89
2019-03-18T03:15:48.638Z,1005.92
2019-03-18T03:16:48.613Z,1005.98
2019-03-18T03:17:48.633Z,1005.96
2019-03-18T03:18:48.592Z,1005.93
2019-03-18T03:19:48.581Z,1005.98
2019-03-18T03:20:48.623Z,1006.01
2019-03-18T03:21:48.565Z,1005.98
2019-03-18T03:22:48.549Z,1005.99
2019-03-18T03:23:48.539Z,1006.02
2019-03-18T03:24:48.686Z,1005.99
2019-03-18T03:25:48.524Z,1006.05
2019-03-18T03:26:48.507Z,1006.05
2019-03-18T03:27:48.497Z,1005.95
2019-03-18T03:28:48.487Z,1005.95
2019-03-18T03:29:48.522Z,1005.98
2019-03-18T03:30:48.586Z,1005.98
2019-03-18T03:31:48.510Z,1006.03
2019-03-18T03:32:48.442Z,1005.98
2019-03-18T03:33:48.436Z,1006.03
2019-03-18T03:34:48.430Z,1006.02
2019-03-18T03:35:48.408Z,1006.07
2019-03-18T03:36:48.450Z,1006.06
2019-03-18T03:37:48.391Z,1006.07
2019-03-18T03:38:48.379Z,1006.06
2019-03-18T03:39:48.367Z,1006.04
2019-03-18T03:40:48.356Z,1006.11
2019-03-18T03:41:48.419Z,1006.08
2019-03-18T03:42:48.335Z,1006.13
2019-03-18T03:43:48.324Z,1006.11
2019-03-18T03:44:48.311Z,1006.16
2019-03-18T03:45:48.342Z,1006.19
2019-03-18T03:46:48.337Z,1006.20
2019-03-18T03:47:48.288Z,1006.21
2019-03-18T03:48:48.272Z,1006.28
2019-03-18T03:49:48.308Z,1006.30
2019-03-18T03:50:48.245Z,1006.27
2019-03-18T03:51:48.240Z,1006.29
2019-03-18T03:52:48.276Z,1006.34
2019-03-18T03:53:48.219Z,1006.35
2019-03-18T03:54:48.205Z,1006.28
2019-03-18T03:55:48.230Z,1006.32
2019-03-18T03:56:48.184Z,1006.29
2019-03-18T03:57:48.218Z,1006.34
2019-03-18T03:58:48.159Z,1006.31
2019-03-18T03:59:48.150Z,1006.29
2019-03-18T04:00:48.139Z,1006.34
2019-03-18T04:01:48.130Z,1006.29
2019-03-18T04:02:48.128Z,1006.32
2019-03-18T04:03:48.158Z,1006.31
2019-03-18T04:04:48.105Z,1006.27
2019-03-18T04:05:48.087Z,1006.34
2019-03-18T04:06:48.077Z,1006.37
2019-03-18T04:07:48.113Z,1006.38
2019-03-18T04:08:48.055Z,1006.34
2019-03-18T04:09:48.040Z,1006.35
2019-03-18T04:10:48.038Z,1006.39
2019-03-18T04:11:48.028Z,1006.35
2019-03-18T04:12:48.009Z,1006.35
2019-03-18T04:13:48.049Z,1006.31
2019-03-18T04:14:48.034Z,1006.40
2019-03-18T04:15:47.980Z,1006.38
2019-03-18T04:17:00.645Z,1006.42
2019-03-18T04:17:48.951Z,1006.41
2019-03-18T04:18:47.944Z,1006.44
2019-03-18T04:19:47.995Z,1006.47
2019-03-18T04:20:47.922Z,1006.52
2019-03-18T04:21:50.648Z,1006.50
2019-03-18T04:22:47.951Z,1006.50
2019-03-18T04:23:47.887Z,1006.55
2019-03-18T04:24:47.880Z,1006.55
2019-03-18T04:25:47.908Z,1006.55
2019-03-18T04:26:47.855Z,1006.61
2019-03-18T04:27:47.853Z,1006.54
2019-03-18T04:28:47.833Z,1006.64
2019-03-18T04:29:47.869Z,1006.66
2019-03-18T04:30:47.811Z,1006.60
2019-03-18T04:31:47.801Z,1006.61
2019-03-18T04:32:47.791Z,1006.76
2019-03-18T04:33:47.781Z,1006.65
2019-03-18T04:34:47.770Z,1006.65
2019-03-18T04:35:47.810Z,1006.65
2019-03-18T04:36:47.772Z,1006.67
2019-03-18T04:37:47.825Z,1006.67
2019-03-18T04:38:47.847Z,1006.73
2019-03-18T04:39:47.717Z,1006.73
2019-03-18T04:40:47.704Z,1006.72
2019-03-18T04:41:47.692Z,1006.78
2019-03-18T04:42:47.682Z,1006.74
2019-03-18T04:43:47.727Z,1006.75
2019-03-18T04:44:47.660Z,1006.75
2019-03-18T04:45:47.651Z,1006.75
2019-03-18T04:46:47.640Z,1006.76
2019-03-18T04:47:47.683Z,1006.80
2019-03-18T04:48:47.621Z,1006.79
2019-03-18T04:49:47.605Z,1006.81
2019-03-18T04:50:47.635Z,1006.77
2019-03-18T04:51:47.588Z,1006.82
2019-03-18T04:52:47.621Z,1006.83
2019-03-18T04:53:47.563Z,1006.86
2019-03-18T04:54:47.550Z,1006.84
2019-03-18T04:55:47.540Z,1006.87
2019-03-18T04:56:47.529Z,1006.86
2019-03-18T04:57:47.518Z,1006.83
2019-03-18T04:58:47.551Z,1006.88
2019-03-18T04:59:47.496Z,1006.93
2019-03-18T05:00:47.487Z,1006.87
2019-03-18T05:01:47.478Z,1006.90
2019-03-18T05:02:47.462Z,1006.87
2019-03-18T05:03:47.454Z,1006.88
2019-03-18T05:04:47.481Z,1006.92
2019-03-18T05:05:47.431Z,1006.98
2019-03-18T05:06:47.421Z,1006.94
2019-03-18T05:07:47.408Z,1006.90
2019-03-18T05:08:47.444Z,1006.97
2019-03-18T05:09:47.388Z,1006.97
2019-03-18T05:10:47.377Z,1006.93
2019-03-18T05:11:47.414Z,1006.94
2019-03-18T05:12:47.356Z,1006.99
2019-03-18T05:13:47.370Z,1006.92
2019-03-18T05:14:47.333Z,1007.01
2019-03-18T05:15:47.323Z,1007.02
2019-03-18T05:16:47.313Z,1007.00
2019-03-18T05:17:47.354Z,1007.02
2019-03-18T05:18:47.290Z,1007.05
2019-03-18T05:19:47.279Z,1007.03
2019-03-18T05:20:47.268Z,1007.05
2019-03-18T05:21:47.257Z,1007.04
2019-03-18T05:22:47.308Z,1007.05
2019-03-18T05:23:47.237Z,1007.09
2019-03-18T05:24:47.225Z,1007.07
2019-03-18T05:25:47.269Z,1007.14
2019-03-18T05:26:47.205Z,1007.13
2019-03-18T05:27:47.194Z,1007.15
2019-03-18T05:28:47.187Z,1007.19
2019-03-18T05:29:47.170Z,1007.18
2019-03-18T05:30:47.162Z,1007.18
2019-03-18T05:31:47.193Z,1007.14
2019-03-18T05:32:47.152Z,1007.13
2019-03-18T05:33:47.128Z,1007.17
2019-03-18T05:34:47.125Z,1007.22
2019-03-18T05:35:47.156Z,1007.18
2019-03-18T05:36:47.095Z,1007.15
2019-03-18T05:37:47.085Z,1007.17
2019-03-18T05:38:47.076Z,1007.18
2019-03-18T05:39:47.064Z,1007.19
2019-03-18T05:40:47.092Z,1007.25
2019-03-18T05:41:47.097Z,1007.22
2019-03-18T05:42:47.030Z,1007.29
2019-03-18T05:43:47.019Z,1007.26
2019-03-18T05:44:47.009Z,1007.29
2019-03-18T05:45:47.001Z,1007.31
2019-03-18T05:46:46.995Z,1007.36
2019-03-18T05:47:47.024Z,1007.38
2019-03-18T05:48:46.969Z,1007.36
2019-03-18T05:49:46.965Z,1007.43
2019-03-18T05:50:46.949Z,1007.45
2019-03-18T05:51:46.937Z,1007.43
2019-03-18T05:52:46.926Z,1007.43
2019-03-18T05:53:46.972Z,1007.50
2019-03-18T05:54:46.903Z,1007.42
2019-03-18T05:55:46.892Z,1007.42
2019-03-18T05:56:46.927Z,1007.45
2019-03-18T05:57:46.873Z,1007.52
2019-03-18T05:58:46.986Z,1007.51
2019-03-18T05:59:46.848Z,1007.53
2019-03-18T06:00:46.841Z,1007.56
2019-03-18T06:01:46.854Z,1007.61
2019-03-18T06:02:47.396Z,1007.61
2019-03-18T06:03:46.826Z,1007.67
2019-03-18T06:04:46.860Z,1007.61
2019-03-18T06:05:46.796Z,1007.65
2019-03-18T06:06:46.792Z,1007.67
2019-03-18T06:07:46.765Z,1007.67
2019-03-18T06:08:46.787Z,1007.69
2019-03-18T06:09:46.756Z,1007.74
2019-03-18T06:10:46.813Z,1007.73
2019-03-18T06:11:46.735Z,1007.78
2019-03-18T06:12:46.714Z,1007.82
2019-03-18T06:13:46.727Z,1007.82
2019-03-18T06:14:46.759Z,1007.86
2019-03-18T06:15:46.727Z,1007.89
2019-03-18T06:16:46.727Z,1007.93
2019-03-18T06:17:52.324Z,1007.99
2019-03-18T06:18:47.685Z,1007.99
2019-03-18T06:19:46.639Z,1008.01
2019-03-18T06:20:46.636Z,1008.06
2019-03-18T06:21:46.618Z,1008.11
2019-03-18T06:22:46.624Z,1008.14
2019-03-18T06:23:46.663Z,1008.11
2019-03-18T06:24:46.610Z,1008.19
2019-03-18T06:25:46.584Z,1008.21
2019-03-18T06:26:48.545Z,1008.23
2019-03-18T06:27:46.589Z,1008.22
2019-03-18T06:28:46.608Z,1008.24
2019-03-18T06:29:46.569Z,1008.22
2019-03-18T06:30:46.524Z,1008.26
2019-03-18T06:31:46.555Z,1008.26
2019-03-18T06:32:46.505Z,1008.27
2019-03-18T06:33:46.487Z,1008.25
2019-03-18T06:34:46.497Z,1008.21
2019-03-18T06:35:46.649Z,1008.24
2019-03-18T06:36:46.529Z,1008.28
2019-03-18T06:37:46.459Z,1008.25
2019-03-18T06:38:46.457Z,1008.29
2019-03-18T06:39:46.427Z,1008.37
2019-03-18T06:40:46.446Z,1008.37
2019-03-18T06:41:46.470Z,1008.35
2019-03-18T06:42:46.398Z,1008.41
2019-03-18T06:43:46.416Z,1008.43
2019-03-18T06:44:46.378Z,1008.44
2019-03-18T06:45:46.385Z,1008.46
2019-03-18T06:46:46.363Z,1008.48
2019-03-18T06:47:46.414Z,1008.61
2019-03-18T06:48:46.333Z,1008.54
2019-03-18T06:49:46.320Z,1008.60
2019-03-18T06:50:46.317Z,1008.65
2019-03-18T06:51:46.463Z,1008.65
2019-03-18T06:52:46.331Z,1008.71
2019-03-18T06:53:46.291Z,1008.77
2019-03-18T06:54:46.339Z,1008.80
2019-03-18T06:55:46.258Z,1008.83
2019-03-18T06:56:46.258Z,1008.85
2019-03-18T06:57:46.267Z,1008.79
2019-03-18T06:58:46.291Z,1008.84
2019-03-18T06:59:46.241Z,1008.79
2019-03-18T07:00:46.210Z,1008.77
2019-03-18T07:01:46.210Z,1008.82
2019-03-18T07:02:46.181Z,1008.87
2019-03-18T07:03:46.217Z,1008.82
2019-03-18T07:04:46.183Z,1008.84
2019-03-18T07:05:46.362Z,1008.84
2019-03-18T07:06:46.220Z,1008.89
2019-03-18T07:07:46.200Z,1008.84
2019-03-18T07:08:46.226Z,1008.85
2019-03-18T07:09:46.109Z,1008.92
2019-03-18T07:10:46.092Z,1008.91
2019-03-18T07:11:46.103Z,1008.86
2019-03-18T07:12:46.111Z,1008.89
2019-03-18T07:13:46.068Z,1008.90
2019-03-18T07:14:46.048Z,1008.85
2019-03-18T07:15:46.085Z,1008.93
2019-03-18T07:16:46.033Z,1008.90
2019-03-18T07:17:46.015Z,1008.87
2019-03-18T07:18:46.042Z,1008.89
2019-03-18T07:19:45.990Z,1008.92
2019-03-18T07:20:46.052Z,1008.94
2019-03-18T07:21:46.035Z,1008.92
2019-03-18T07:22:45.967Z,1008.93
2019-03-18T07:23:45.994Z,1008.96
2019-03-18T07:24:45.951Z,1008.91
2019-03-18T07:25:46.003Z,1008.90
2019-03-18T07:26:45.948Z,1008.92
2019-03-18T07:27:45.960Z,1008.93
2019-03-18T07:28:45.910Z,1008.91
2019-03-18T07:29:45.886Z,1008.96
2019-03-18T07:30:45.920Z,1009.01
2019-03-18T07:31:45.937Z,1009.02
2019-03-18T07:32:45.869Z,1009.07
2019-03-18T07:33:45.905Z,1009.00
2019-03-18T07:34:45.832Z,1008.95
2019-03-18T07:35:45.862Z,1008.97
2019-03-18T07:36:45.877Z,1009.08
2019-03-18T07:37:45.950Z,1009.16
2019-03-18T07:38:45.791Z,1009.14
2019-03-18T07:39:45.849Z,1009.15
2019-03-18T07:40:46.211Z,1009.15
2019-03-18T07:41:45.766Z,1009.20
2019-03-18T07:42:45.794Z,1009.18
2019-03-18T07:43:45.737Z,1009.22
2019-03-18T07:44:45.727Z,1009.26
2019-03-18T07:45:45.814Z,1009.29
2019-03-18T07:46:45.721Z,1009.31
2019-03-18T07:47:45.786Z,1009.28
2019-03-18T07:48:45.691Z,1009.31
2019-03-18T07:49:45.665Z,1009.26
2019-03-18T07:50:45.662Z,1009.30
2019-03-18T07:51:45.679Z,1009.26
2019-03-18T07:52:45.644Z,1009.33
2019-03-18T07:53:45.702Z,1009.39
2019-03-18T07:54:45.723Z,1009.35
2019-03-18T07:55:45.622Z,1009.37
2019-03-18T07:56:45.607Z,1009.34
2019-03-18T07:57:45.601Z,1009.41
2019-03-18T07:58:45.589Z,1009.42
2019-03-18T07:59:45.588Z,1009.46
2019-03-18T08:00:45.668Z,1009.47
2019-03-18T08:01:45.553Z,1009.45
2019-03-18T08:02:45.524Z,1009.46
2019-03-18T08:03:45.534Z,1009.48
2019-03-18T08:04:45.535Z,1009.58
2019-03-18T08:05:45.529Z,1009.58
2019-03-18T08:06:45.553Z,1009.56
2019-03-18T08:07:45.470Z,1009.53
2019-03-18T08:08:45.462Z,1009.53
2019-03-18T08:09:45.495Z,1009.53
2019-03-18T08:10:45.472Z,1009.54
2019-03-18T08:11:45.489Z,1009.52
2019-03-18T08:12:45.482Z,1009.57
2019-03-18T08:13:45.413Z,1009.50
2019-03-18T08:14:45.418Z,1009.65
2019-03-18T08:15:45.406Z,1009.57
2019-03-18T08:16:45.438Z,1009.61
2019-03-18T08:17:45.380Z,1009.61
2019-03-18T08:18:45.348Z,1009.69
2019-03-18T08:19:45.388Z,1009.63
2019-03-18T08:20:45.335Z,1009.78
2019-03-18T08:21:45.317Z,1009.69
2019-03-18T08:22:45.333Z,1009.76
2019-03-18T08:23:45.349Z,1009.71
2019-03-18T08:24:45.321Z,1009.70
2019-03-18T08:25:45.270Z,1009.73
2019-03-18T08:26:45.307Z,1009.92
2019-03-18T08:27:45.251Z,1009.82
2019-03-18T08:28:45.276Z,1009.78
2019-03-18T08:29:45.269Z,1009.81
2019-03-18T08:30:45.236Z,1009.79
2019-03-18T08:31:45.213Z,1009.75
2019-03-18T08:32:45.187Z,1009.86
2019-03-18T08:33:45.189Z,1010.04
2019-03-18T08:34:45.293Z,1009.90
2019-03-18T08:35:45.153Z,1009.94
2019-03-18T08:36:45.187Z,1009.94
2019-03-18T08:37:45.169Z,1009.98
2019-03-18T08:38:45.156Z,1009.94
2019-03-18T08:39:45.180Z,1009.97
2019-03-18T08:40:45.127Z,1009.99
2019-03-18T08:41:45.112Z,1009.96
2019-03-18T08:42:45.157Z,1009.98
2019-03-18T08:43:45.075Z,1010.01
2019-03-18T08:44:45.054Z,1009.97
2019-03-18T08:45:45.047Z,1010.02
2019-03-18T08:46:45.049Z,1010.03
2019-03-18T08:47:45.076Z,1009.99
2019-03-18T08:48:55.346Z,1010.03
2019-03-18T08:49:46.052Z,1010.07
2019-03-18T08:50:45.017Z,1010.15
2019-03-18T08:51:45.041Z,1010.09
2019-03-18T08:52:44.991Z,1010.08
2019-03-18T08:53:44.980Z,1010.02
2019-03-18T08:54:44.960Z,1010.24
2019-03-18T08:55:45.058Z,1010.15
2019-03-18T08:56:44.931Z,1010.18
2019-03-18T08:57:44.997Z,1010.14
2019-03-18T08:58:44.901Z,1010.13
2019-03-18T08:59:44.895Z,1010.13
2019-03-18T09:00:44.878Z,1010.13
2019-03-18T09:01:44.867Z,1010.18
2019-03-18T09:02:44.924Z,1010.11
2019-03-18T09:03:44.879Z,1010.20
2019-03-18T09:04:44.889Z,1010.12
2019-03-18T09:05:44.817Z,1010.17
2019-03-18T09:06:44.814Z,1010.29
2019-03-18T09:07:44.912Z,1010.24
2019-03-18T09:08:44.866Z,1010.21
2019-03-18T09:09:44.779Z,1010.26
2019-03-18T09:10:44.808Z,1010.33
2019-03-18T09:11:44.775Z,1010.27
2019-03-18T09:12:44.780Z,1010.35
2019-03-18T09:13:44.744Z,1010.30
2019-03-18T09:14:44.717Z,1010.18
2019-03-18T09:15:44.787Z,1010.25
2019-03-18T09:16:44.725Z,1010.23
2019-03-18T09:17:44.729Z,1010.16
2019-03-18T09:18:44.684Z,1010.14
2019-03-18T09:19:44.665Z,1010.22
2019-03-18T09:20:44.655Z,1010.21
2019-03-18T09:21:44.653Z,1010.34
2019-03-18T09:22:44.663Z,1010.21
2019-03-18T09:23:44.667Z,1010.31
2019-03-18T09:24:44.610Z,1010.21
2019-03-18T09:25:44.758Z,1010.23
2019-03-18T09:26:44.585Z,1010.29
2019-03-18T09:27:44.587Z,1010.20
2019-03-18T09:28:44.567Z,1010.27
2019-03-18T09:29:44.553Z,1010.21
2019-03-18T09:30:44.594Z,1010.30
2019-03-18T09:31:44.571Z,1010.23
2019-03-18T09:32:44.571Z,1010.29
2019-03-18T09:33:44.518Z,1010.23
2019-03-18T09:34:44.554Z,1010.28
2019-03-18T09:35:44.497Z,1010.33
2019-03-18T09:36:44.482Z,1010.20
2019-03-18T09:37:44.468Z,1010.24
2019-03-18T09:38:44.537Z,1010.27
2019-03-18T09:39:44.441Z,1010.18
2019-03-18T09:40:44.443Z,1010.29
2019-03-18T09:41:44.433Z,1010.33
2019-03-18T09:42:44.416Z,1010.29
2019-03-18T09:43:44.405Z,1010.31
2019-03-18T09:44:44.429Z,1010.27
2019-03-18T09:45:44.423Z,1010.39
2019-03-18T09:46:44.415Z,1010.39
2019-03-18T09:47:44.345Z,1010.63
2019-03-18T09:48:44.347Z,1010.53
2019-03-18T09:49:44.346Z,1010.64
2019-03-18T09:50:44.321Z,1010.50
2019-03-18T09:51:44.309Z,1010.70
2019-03-18T09:52:44.347Z,1010.80
2019-03-18T09:53:44.278Z,1010.63
2019-03-18T09:54:44.276Z,1010.68
2019-03-18T09:55:44.266Z,1010.71
2019-03-18T09:56:44.265Z,1010.89
2019-03-18T09:57:44.283Z,1010.68
2019-03-18T09:58:44.614Z,1010.70
2019-03-18T09:59:44.243Z,1010.78
2019-03-18T10:00:44.205Z,1010.76
2019-03-18T10:01:44.580Z,1010.76
2019-03-18T10:02:44.233Z,1010.94
2019-03-18T10:03:44.246Z,1010.86
2019-03-18T10:04:44.214Z,1010.95
2019-03-18T10:05:44.974Z,1011.03
2019-03-18T10:06:45.070Z,1010.96
2019-03-18T10:07:44.332Z,1010.96
2019-03-18T10:08:44.162Z,1011.13
2019-03-18T10:09:44.105Z,1010.83
2019-03-18T10:10:44.106Z,1010.92
2019-03-18T10:11:44.087Z,1011.02
2019-03-18T10:12:44.417Z,1011.12
2019-03-18T10:13:44.076Z,1011.12
2019-03-18T10:14:44.060Z,1011.16
2019-03-18T10:15:44.052Z,1011.22
2019-03-18T10:16:44.086Z,1011.11
2019-03-18T10:17:44.092Z,1011.13
2019-03-18T10:18:44.016Z,1011.05
2019-03-18T10:19:44.051Z,1011.04
2019-03-18T10:20:43.991Z,1011.03
2019-03-18T10:21:43.988Z,1011.05
2019-03-18T10:22:43.981Z,1011.10
2019-03-18T10:23:44.008Z,1011.19
2019-03-18T10:24:43.969Z,1011.16
2019-03-18T10:25:43.936Z,1011.09
2019-03-18T10:26:43.923Z,1011.08
2019-03-18T10:27:43.970Z,1011.17
2019-03-18T10:28:43.904Z,1011.18
2019-03-18T10:29:44.034Z,1011.17
2019-03-18T10:30:43.932Z,1011.33
2019-03-18T10:31:43.989Z,1011.26
2019-03-18T10:32:43.934Z,1011.26
2019-03-18T10:33:45.056Z,1011.23
2019-03-18T10:34:44.117Z,1011.27
2019-03-18T10:35:43.861Z,1011.22
2019-03-18T10:36:43.871Z,1011.41
2019-03-18T10:37:43.822Z,1011.39
2019-03-18T10:38:43.901Z,1011.38
2019-03-18T10:39:43.830Z,1011.19
2019-03-18T10:40:43.946Z,1011.23
2019-03-18T10:41:43.831Z,1011.18
2019-03-18T10:42:43.777Z,1011.16
2019-03-18T10:43:43.754Z,1011.19
2019-03-18T10:44:43.893Z,1011.13
2019-03-18T10:45:43.722Z,1011.13
2019-03-18T10:46:43.736Z,1011.05
2019-03-18T10:47:43.775Z,1011.05
2019-03-18T10:48:43.760Z,1011.08
2019-03-18T10:49:46.510Z,1011.13
2019-03-18T10:50:43.682Z,1011.19
2019-03-18T10:51:43.760Z,1011.32
2019-03-18T10:52:43.668Z,1011.27
2019-03-18T10:53:44.666Z,1011.30
2019-03-18T10:54:43.661Z,1011.32
2019-03-18T10:55:43.621Z,1011.35
2019-03-18T10:56:43.598Z,1011.28
2019-03-18T10:57:43.628Z,1011.34
2019-03-18T10:58:43.581Z,1011.57
2019-03-18T10:59:43.611Z,1011.48
2019-03-18T11:00:43.560Z,1011.50
2019-03-18T11:01:43.590Z,1011.65
2019-03-18T11:02:44.960Z,1011.48
2019-03-18T11:03:43.535Z,1011.72
2019-03-18T11:04:43.547Z,1011.65
2019-03-18T11:05:43.564Z,1011.57
2019-03-18T11:06:43.484Z,1011.56
2019-03-18T11:07:43.616Z,1011.64
2019-03-18T11:08:43.505Z,1011.59
2019-03-18T11:09:43.467Z,1011.56
2019-03-18T11:10:43.499Z,1011.52
2019-03-18T11:11:43.508Z,1011.62
2019-03-18T11:12:43.487Z,1011.87
2019-03-18T11:13:43.407Z,1011.57
2019-03-18T11:14:43.419Z,1011.71
2019-03-18T11:15:43.425Z,1011.66
2019-03-18T11:16:43.427Z,1011.60
2019-03-18T11:17:43.363Z,1011.65
2019-03-18T11:18:43.359Z,1011.61
2019-03-18T11:19:43.347Z,1011.63
2019-03-18T11:20:43.373Z,1011.78
2019-03-18T11:21:43.348Z,1011.80
2019-03-18T11:22:43.323Z,1011.72
2019-03-18T11:23:43.344Z,1011.72
2019-03-18T11:24:43.290Z,1011.62
2019-03-18T11:25:43.314Z,1011.64
2019-03-18T11:26:43.280Z,1011.64
2019-03-18T11:27:43.268Z,1011.57
2019-03-18T11:28:43.270Z,1011.58
2019-03-18T11:29:43.303Z,1011.57
2019-03-18T11:30:43.243Z,1011.55
2019-03-18T11:31:43.211Z,1011.60
2019-03-18T11:32:43.212Z,1011.55
2019-03-18T11:33:43.204Z,1011.51
2019-03-18T11:34:43.264Z,1011.55
2019-03-18T11:35:43.163Z,1011.50
2019-03-18T11:36:43.155Z,1011.55
2019-03-18T11:37:43.144Z,1011.52
2019-03-18T11:38:43.148Z,1011.54
2019-03-18T11:39:43.135Z,1011.54
2019-03-18T11:40:43.162Z,1011.53
2019-03-18T11:41:43.108Z,1011.48
2019-03-18T11:42:43.089Z,1011.52
2019-03-18T11:43:43.082Z,1011.53
2019-03-18T11:44:43.072Z,1011.49
2019-03-18T11:45:43.112Z,1011.46
2019-03-18T11:46:43.154Z,1011.51
2019-03-18T11:47:43.032Z,1011.52
2019-03-18T11:48:43.075Z,1011.51
2019-03-18T11:49:43.023Z,1011.46
2019-03-18T11:50:43.048Z,1011.46
2019-03-18T11:51:42.988Z,1011.40
2019-03-18T11:52:43.014Z,1011.54
2019-03-18T11:53:42.977Z,1011.43
2019-03-18T11:54:42.961Z,1011.43
2019-03-18T11:55:42.949Z,1011.55
2019-03-18T11:56:42.939Z,1011.44
2019-03-18T11:57:42.989Z,1011.49
2019-03-18T11:58:42.982Z,1011.37
2019-03-18T11:59:42.903Z,1011.47
2019-03-18T12:00:42.916Z,1011.36
2019-03-18T12:01:42.960Z,1011.43
2019-03-18T12:02:42.906Z,1011.40
2019-03-18T12:03:42.898Z,1011.34
2019-03-18T12:04:42.857Z,1011.40
2019-03-18T12:05:42.837Z,1011.45